createdAt,value
2019-02-02T00:00:42.072Z,141.10
2019-02-02T00:03:10.941Z,151.00
2019-02-02T00:05:39.467Z,154.63
2019-02-02T00:08:08.431Z,148.53
2019-02-02T00:10:36.898Z,150.70
2019-02-02T00:13:05.529Z,154.77
2019-02-02T00:15:34.112Z,154.93
2019-02-02T00:18:02.582Z,154.37
2019-02-02T00:20:31.020Z,163.27
2019-02-02T00:22:59.526Z,143.67
2019-02-02T00:25:27.994Z,140.17
2019-02-02T00:27:56.472Z,149.73
2019-02-02T00:30:25.011Z,146.27
2019-02-02T00:32:53.502Z,153.73
2019-02-02T00:35:21.975Z,153.93
2019-02-02T00:37:51.459Z,154.17
2019-02-02T00:40:20.598Z,139.40
2019-02-02T00:42:49.133Z,146.70
2019-02-02T00:45:22.394Z,155.23
2019-02-02T00:47:50.986Z,153.90
2019-02-02T00:50:20.094Z,138.60
2019-02-02T00:52:48.596Z,147.80
2019-02-02T00:55:18.590Z,144.00
2019-02-02T00:57:53.380Z,151.57
2019-02-02T01:00:23.459Z,155.60
2019-02-02T01:02:51.991Z,144.10
2019-02-02T01:05:24.434Z,163.97
2019-02-02T01:07:54.175Z,161.23
2019-02-02T01:10:39.736Z,163.50
2019-02-02T01:13:08.337Z,161.17
2019-02-02T01:15:36.801Z,160.03
2019-02-02T01:18:05.826Z,165.23
2019-02-02T01:20:34.401Z,166.50
2019-02-02T01:23:02.863Z,160.37
2019-02-02T01:25:31.393Z,162.53
2019-02-02T01:28:05.396Z,159.47
2019-02-02T01:30:30.123Z,165.13
2019-02-02T01:32:58.573Z,162.40
2019-02-02T01:35:27.186Z,159.90
2019-02-02T01:37:55.650Z,171.53
2019-02-02T01:40:26.372Z,175.20
2019-02-02T01:42:55.316Z,149.90
2019-02-02T01:45:26.022Z,155.90
2019-02-02T01:47:55.148Z,170.97
2019-02-02T01:50:27.543Z,158.33
2019-02-02T01:52:56.075Z,180.00
2019-02-02T01:55:24.608Z,164.00
2019-02-02T01:57:53.442Z,181.67
2019-02-02T02:00:24.346Z,195.07
2019-02-02T02:02:52.882Z,167.60
2019-02-02T02:05:21.429Z,171.43
2019-02-02T02:07:49.968Z,173.47
2019-02-02T02:10:19.678Z,165.00
2019-02-02T02:12:48.258Z,168.47
2019-02-02T02:15:18.364Z,187.70
2019-02-02T02:17:46.903Z,166.93
2019-02-02T02:20:17.333Z,178.23
2019-02-02T02:22:46.443Z,182.87
2019-02-02T02:25:19.562Z,175.20
2019-02-02T02:27:48.193Z,190.33
2019-02-02T02:30:19.271Z,187.70
2019-02-02T02:32:47.794Z,180.53
2019-02-02T02:35:16.427Z,195.47
2019-02-02T02:37:45.127Z,174.23
2019-02-02T02:40:21.863Z,168.53
2019-02-02T02:42:51.965Z,188.23
2019-02-02T02:45:20.743Z,176.77
2019-02-02T02:47:49.305Z,163.87
2019-02-02T02:50:19.719Z,162.63
2019-02-02T02:52:48.190Z,178.73
2019-02-02T02:55:18.188Z,167.57
2019-02-02T02:57:47.188Z,164.23
2019-02-02T03:00:18.197Z,172.03
2019-02-02T03:02:46.769Z,168.33
2019-02-02T03:05:17.762Z,162.87
2019-02-02T03:07:47.041Z,192.53
2019-02-02T03:10:18.347Z,173.43
2019-02-02T03:12:46.958Z,184.20
2019-02-02T03:15:17.166Z,180.70
2019-02-02T03:17:46.087Z,176.37
2019-02-02T03:20:15.897Z,190.60
2019-02-02T03:22:44.732Z,187.43
2019-02-02T03:25:18.849Z,163.17
2019-02-02T03:27:47.315Z,185.67
2019-02-02T03:30:18.278Z,207.53
2019-02-02T03:32:46.762Z,189.20
2019-02-02T03:35:17.860Z,182.30
2019-02-02T03:37:46.397Z,203.93
2019-02-02T03:40:17.040Z,200.03
2019-02-02T03:42:45.590Z,185.23
2019-02-02T03:45:16.763Z,165.33
2019-02-02T03:47:45.275Z,179.67
2019-02-02T03:50:14.146Z,188.07
2019-02-02T03:52:42.595Z,180.20
2019-02-02T03:55:13.527Z,180.40
2019-02-02T03:57:42.083Z,174.67
2019-02-02T04:00:16.023Z,180.20
2019-02-02T04:02:44.618Z,193.67
2019-02-02T04:05:15.732Z,190.27
2019-02-02T04:07:44.197Z,176.30
2019-02-02T04:10:14.162Z,175.03
2019-02-02T04:12:42.637Z,185.80
2019-02-02T04:15:13.872Z,185.50
2019-02-02T04:17:42.341Z,175.33
2019-02-02T04:20:21.874Z,196.47
2019-02-02T04:22:50.731Z,188.73
2019-02-02T04:25:21.807Z,179.23
2019-02-02T04:27:50.343Z,181.93
2019-02-02T04:30:21.548Z,188.87
2019-02-02T04:32:50.012Z,184.57
2019-02-02T04:35:18.549Z,206.87
2019-02-02T04:37:47.069Z,176.50
2019-02-02T04:40:16.059Z,193.00
2019-02-02T04:42:44.664Z,168.60
2019-02-02T04:45:15.679Z,186.37
2019-02-02T04:47:44.661Z,162.57
2019-02-02T04:50:15.456Z,179.27
2019-02-02T04:52:44.009Z,179.33
2019-02-02T04:55:15.233Z,169.30
2019-02-02T04:57:43.672Z,177.07
2019-02-02T05:00:15.302Z,180.37
2019-02-02T05:02:43.769Z,187.20
2019-02-02T05:05:14.572Z,171.97
2019-02-02T05:07:43.068Z,176.87
2019-02-02T05:10:17.844Z,163.47
2019-02-02T05:12:46.319Z,167.23
2019-02-02T05:15:15.173Z,181.53
2019-02-02T05:17:43.637Z,155.27
2019-02-02T05:20:17.839Z,186.23
2019-02-02T05:22:46.502Z,174.53
2019-02-02T05:25:15.027Z,161.13
2019-02-02T05:27:43.551Z,174.67
2019-02-02T05:30:23.792Z,180.10
2019-02-02T05:32:52.269Z,150.53
2019-02-02T05:35:20.791Z,147.80
2019-02-02T05:37:49.291Z,160.13
2019-02-02T05:40:19.801Z,188.07
2019-02-02T05:42:48.398Z,152.03
2019-02-02T05:45:18.832Z,163.30
2019-02-02T05:47:47.472Z,138.90
2019-02-02T05:50:18.414Z,161.27
2019-02-02T05:52:46.973Z,181.17
2019-02-02T05:55:17.382Z,166.63
2019-02-02T05:57:45.918Z,178.70
2019-02-02T06:00:18.880Z,159.33
2019-02-02T06:02:47.408Z,153.47
2019-02-02T06:05:15.871Z,170.00
2019-02-02T06:07:44.388Z,154.47
2019-02-02T06:10:15.762Z,143.17
2019-02-02T06:12:44.282Z,161.40
2019-02-02T06:15:13.547Z,172.83
2019-02-02T06:17:42.093Z,163.27
2019-02-02T06:20:18.052Z,160.93
2019-02-02T06:22:46.523Z,158.77
2019-02-02T06:25:15.840Z,166.13
2019-02-02T06:27:44.483Z,146.20
2019-02-02T06:30:21.237Z,177.27
2019-02-02T06:32:49.707Z,159.20
2019-02-02T06:35:18.913Z,143.60
2019-02-02T06:37:47.432Z,140.90
2019-02-02T06:40:18.539Z,157.17
2019-02-02T06:42:47.078Z,164.07
2019-02-02T06:45:24.685Z,160.57
2019-02-02T06:47:53.283Z,148.27
2019-02-02T06:50:21.972Z,159.73
2019-02-02T06:52:51.593Z,160.50
2019-02-02T06:55:20.171Z,202.93
2019-02-02T06:57:48.605Z,141.93
2019-02-02T07:00:22.076Z,146.90
2019-02-02T07:02:50.647Z,149.53
2019-02-02T07:05:19.133Z,146.57
2019-02-02T07:07:47.636Z,136.57
2019-02-02T07:10:18.931Z,151.17
2019-02-02T07:12:47.394Z,145.07
2019-02-02T07:15:18.055Z,145.17
2019-02-02T07:17:46.511Z,157.53
2019-02-02T07:20:15.445Z,133.97
2019-02-02T07:22:44.012Z,148.83
2019-02-02T07:25:12.565Z,143.23
2019-02-02T07:27:41.025Z,153.67
2019-02-02T07:30:12.787Z,152.27
2019-02-02T07:32:41.321Z,137.60
2019-02-02T07:35:11.432Z,128.67
2019-02-02T07:37:40.004Z,148.17
2019-02-02T07:40:11.180Z,138.70
2019-02-02T07:42:39.648Z,129.80
2019-02-02T07:45:11.550Z,145.93
2019-02-02T07:47:40.067Z,134.57
2019-02-02T07:50:11.777Z,139.50
2019-02-02T07:52:40.288Z,148.03
2019-02-02T07:55:11.522Z,133.07
2019-02-02T07:57:39.982Z,147.10
2019-02-02T08:00:40.468Z,144.07
2019-02-02T08:03:03.181Z,130.73
2019-02-02T08:05:31.721Z,138.03
2019-02-02T08:08:00.278Z,129.97
2019-02-02T08:10:28.725Z,125.93
2019-02-02T08:12:57.199Z,130.90
2019-02-02T08:15:33.401Z,131.80
2019-02-02T08:18:01.873Z,132.20
2019-02-02T08:20:30.327Z,149.67
2019-02-02T08:22:58.816Z,135.00
2019-02-02T08:25:27.264Z,138.77
2019-02-02T08:27:55.968Z,145.07
2019-02-02T08:30:35.414Z,141.90
2019-02-02T08:33:02.550Z,150.37
2019-02-02T08:35:30.999Z,155.73
2019-02-02T08:37:59.565Z,139.80
2019-02-02T08:40:28.025Z,142.77
2019-02-02T08:42:56.498Z,145.00
2019-02-02T08:45:24.997Z,145.10
2019-02-02T08:47:53.458Z,144.17
2019-02-02T08:50:25.071Z,142.23
2019-02-02T08:52:53.593Z,141.33
2019-02-02T08:55:22.167Z,146.50
2019-02-02T08:57:50.816Z,144.67
2019-02-02T09:00:22.306Z,144.77
2019-02-02T09:02:51.116Z,131.67
2019-02-02T09:05:21.522Z,147.77
2019-02-02T09:07:50.166Z,150.07
2019-02-02T09:10:24.031Z,151.20
2019-02-02T09:12:52.506Z,125.13
2019-02-02T09:15:21.151Z,141.73
2019-02-02T09:17:49.619Z,136.57
2019-02-02T09:20:18.083Z,134.30
2019-02-02T09:22:47.125Z,144.13
2019-02-02T09:25:19.348Z,153.90
2019-02-02T09:27:47.888Z,166.57
2019-02-02T09:30:22.141Z,158.00
2019-02-02T09:32:50.608Z,135.43
2019-02-02T09:35:19.132Z,145.43
2019-02-02T09:37:47.669Z,149.07
2019-02-02T09:40:18.254Z,153.87
2019-02-02T09:42:47.102Z,148.33
2019-02-02T09:45:17.540Z,128.90
2019-02-02T09:47:46.198Z,132.03
2019-02-02T09:50:19.946Z,132.03
2019-02-02T09:52:48.428Z,135.77
2019-02-02T09:55:20.399Z,137.33
2019-02-02T09:57:49.414Z,128.13
2019-02-02T10:00:23.337Z,139.83
2019-02-02T10:02:51.808Z,125.43
2019-02-02T10:05:20.489Z,130.77
2019-02-02T10:07:49.172Z,119.43
2019-02-02T10:10:22.571Z,136.83
2019-02-02T10:12:51.077Z,144.63
2019-02-02T10:15:19.901Z,144.37
2019-02-02T10:17:49.857Z,135.33
2019-02-02T10:20:21.471Z,137.40
2019-02-02T10:22:49.948Z,127.93
2019-02-02T10:25:24.389Z,125.03
2019-02-02T10:27:53.001Z,112.83
2019-02-02T10:30:33.268Z,147.20
2019-02-02T10:33:02.027Z,130.40
2019-02-02T10:35:30.484Z,135.50
2019-02-02T10:37:58.958Z,145.37
2019-02-02T10:40:29.880Z,135.67
2019-02-02T10:42:57.701Z,127.67
2019-02-02T10:45:26.329Z,126.87
2019-02-02T10:47:54.841Z,132.43
2019-02-02T10:50:27.189Z,134.97
2019-02-02T10:52:55.645Z,115.67
2019-02-02T10:55:26.854Z,125.80
2019-02-02T10:57:55.304Z,123.63
2019-02-02T11:00:26.821Z,140.53
2019-02-02T11:02:55.382Z,119.73
2019-02-02T11:05:23.955Z,130.27
2019-02-02T11:07:54.512Z,115.70
2019-02-02T11:10:24.700Z,130.07
2019-02-02T11:12:53.920Z,117.47
2019-02-02T11:15:23.565Z,123.07
2019-02-02T11:17:52.182Z,129.57
2019-02-02T11:20:31.481Z,135.97
2019-02-02T11:23:00.353Z,135.80
2019-02-02T11:25:29.002Z,128.40
2019-02-02T11:27:57.467Z,124.57
2019-02-02T11:30:26.892Z,122.57
2019-02-02T11:32:55.397Z,133.77
2019-02-02T11:35:23.876Z,122.43
2019-02-02T11:37:52.378Z,117.93
2019-02-02T11:40:26.448Z,136.10
2019-02-02T11:42:55.310Z,162.37
2019-02-02T11:45:23.876Z,157.93
2019-02-02T11:47:52.439Z,144.23
2019-02-02T11:50:21.844Z,129.97
2019-02-02T11:52:50.415Z,134.50
2019-02-02T11:55:21.271Z,134.67
2019-02-02T11:57:50.183Z,144.43
2019-02-02T12:00:26.875Z,126.10
2019-02-02T12:02:55.483Z,142.53
2019-02-02T12:05:24.004Z,133.20
2019-02-02T12:07:52.499Z,130.93
2019-02-02T12:10:26.302Z,139.00
2019-02-02T12:12:54.768Z,135.70
2019-02-02T12:15:23.422Z,141.97
2019-02-02T12:17:51.880Z,139.73
2019-02-02T12:20:21.972Z,133.33
2019-02-02T12:22:50.557Z,150.07
2019-02-02T12:25:19.005Z,126.53
2019-02-02T12:27:47.533Z,130.17
2019-02-02T12:30:28.140Z,159.93
2019-02-02T12:32:56.599Z,133.73
2019-02-02T12:35:26.813Z,130.90
2019-02-02T12:37:55.452Z,145.83
2019-02-02T12:40:26.062Z,131.83
2019-02-02T12:42:54.559Z,126.53
2019-02-02T12:45:28.625Z,128.37
2019-02-02T12:47:57.097Z,128.87
2019-02-02T12:50:25.562Z,117.43
2019-02-02T12:52:54.067Z,117.07
2019-02-02T12:55:22.612Z,132.37
2019-02-02T12:57:51.078Z,120.67
2019-02-02T13:00:22.398Z,116.00
2019-02-02T13:02:50.862Z,128.83
2019-02-02T13:05:21.844Z,119.87
2019-02-02T13:07:50.431Z,129.37
2019-02-02T13:10:29.548Z,151.13
2019-02-02T13:12:58.105Z,130.87
2019-02-02T13:15:26.635Z,117.23
2019-02-02T13:17:55.171Z,139.37
2019-02-02T13:20:23.682Z,131.00
2019-02-02T13:22:52.174Z,140.03
2019-02-02T13:25:26.162Z,168.13
2019-02-02T13:27:54.739Z,149.50
2019-02-02T13:30:28.679Z,137.03
2019-02-02T13:32:57.472Z,142.03
2019-02-02T13:35:27.048Z,155.53
2019-02-02T13:37:55.594Z,138.50
2019-02-02T13:40:25.020Z,152.73
2019-02-02T13:42:53.653Z,168.57
2019-02-02T13:45:23.494Z,149.67
2019-02-02T13:47:52.283Z,149.43
2019-02-02T13:50:21.384Z,128.67
2019-02-02T13:52:51.348Z,172.07
2019-02-02T13:55:19.959Z,155.67
2019-02-02T13:57:48.485Z,147.27
2019-02-02T14:00:26.040Z,148.83
2019-02-02T14:03:02.083Z,159.53
2019-02-02T14:05:24.732Z,147.40
2019-02-02T14:07:53.902Z,164.80
2019-02-02T14:10:27.568Z,134.53
2019-02-02T14:12:56.198Z,156.40
2019-02-02T14:15:24.671Z,175.13
2019-02-02T14:17:53.309Z,143.60
2019-02-02T14:20:21.845Z,141.37
2019-02-02T14:22:50.387Z,131.03
2019-02-02T14:25:19.413Z,151.63
2019-02-02T14:27:47.902Z,130.77
2019-02-02T14:30:24.305Z,153.67
2019-02-02T14:32:54.946Z,156.57
2019-02-02T14:35:25.080Z,126.87
2019-02-02T14:37:53.596Z,144.40
2019-02-02T14:40:22.120Z,122.83
2019-02-02T14:42:50.592Z,105.90
2019-02-02T14:45:26.768Z,125.17
2019-02-02T14:47:55.863Z,116.90
2019-02-02T14:50:24.353Z,140.10
2019-02-02T14:52:53.995Z,143.20
2019-02-02T14:55:24.723Z,146.70
2019-02-02T14:57:53.263Z,124.77
2019-02-02T15:00:26.749Z,121.30
2019-02-02T15:02:55.285Z,126.60
2019-02-02T15:05:23.816Z,131.00
2019-02-02T15:07:52.377Z,113.90
2019-02-02T15:10:22.136Z,125.73
2019-02-02T15:12:50.855Z,120.00
2019-02-02T15:15:19.370Z,119.00
2019-02-02T15:17:47.825Z,114.73
2019-02-02T15:20:22.439Z,105.77
2019-02-02T15:22:51.270Z,104.93
2019-02-02T15:25:19.734Z,106.23
2019-02-02T15:27:48.191Z,123.73
2019-02-02T15:30:22.127Z,109.53
2019-02-02T15:32:50.754Z,94.80
2019-02-02T15:35:19.217Z,88.27
2019-02-02T15:37:47.718Z,111.93
2019-02-02T15:40:18.012Z,114.30
2019-02-02T15:42:46.652Z,103.73
2019-02-02T15:45:17.405Z,98.80
2019-02-02T15:47:45.851Z,83.53
2019-02-02T15:50:16.037Z,85.63
2019-02-02T15:52:44.873Z,89.33
2019-02-02T15:55:16.322Z,74.93
2019-02-02T15:57:44.789Z,79.37
2019-02-02T16:00:18.772Z,70.30
2019-02-02T16:02:47.247Z,72.03
2019-02-02T16:05:17.450Z,84.13
2019-02-02T16:07:45.955Z,80.73
2019-02-02T16:10:20.538Z,65.73
2019-02-02T16:12:50.916Z,86.40
2019-02-02T16:15:19.359Z,74.23
2019-02-02T16:17:47.888Z,71.93
2019-02-02T16:20:18.829Z,51.87
2019-02-02T16:22:47.528Z,59.27
2019-02-02T16:25:16.053Z,57.30
2019-02-02T16:27:44.572Z,55.53
2019-02-02T16:30:29.560Z,50.07
2019-02-02T16:32:58.061Z,65.10
2019-02-02T16:35:26.524Z,60.37
2019-02-02T16:37:55.060Z,55.10
2019-02-02T16:40:28.632Z,61.30
2019-02-02T16:42:57.274Z,51.27
2019-02-02T16:45:28.946Z,56.27
2019-02-02T16:47:57.451Z,66.87
2019-02-02T16:50:25.966Z,60.70
2019-02-02T16:52:54.570Z,58.33
2019-02-02T16:55:23.125Z,54.50
2019-02-02T16:57:51.595Z,51.77
2019-02-02T17:00:22.757Z,54.10
2019-02-02T17:02:51.326Z,55.60
2019-02-02T17:05:19.863Z,46.53
2019-02-02T17:07:48.310Z,49.60
2019-02-02T17:10:28.361Z,57.70
2019-02-02T17:12:56.818Z,54.33
2019-02-02T17:15:25.661Z,60.40
2019-02-02T17:17:54.160Z,55.37
2019-02-02T17:20:28.116Z,55.17
2019-02-02T17:22:56.597Z,57.93
2019-02-02T17:25:25.160Z,55.83
2019-02-02T17:27:53.632Z,50.53
2019-02-02T17:30:26.421Z,49.50
2019-02-02T17:33:06.188Z,43.70
2019-02-02T17:35:34.649Z,108.57
2019-02-02T17:38:03.115Z,62.80
2019-02-02T17:40:31.615Z,81.13
2019-02-02T17:43:00.067Z,68.13
2019-02-02T17:45:28.614Z,65.97
2019-02-02T17:47:57.224Z,80.67
2019-02-02T17:50:29.989Z,99.67
2019-02-02T17:52:58.453Z,309.23
2019-02-02T17:55:27.032Z,351.03
2019-02-02T17:57:55.482Z,93.20
2019-02-02T18:00:31.369Z,65.57
2019-02-02T18:02:59.893Z,66.23
2019-02-02T18:05:28.347Z,61.60
2019-02-02T18:07:56.802Z,54.70
2019-02-02T18:10:25.278Z,61.17
2019-02-02T18:12:53.740Z,62.57
2019-02-02T18:15:22.202Z,49.53
2019-02-02T18:17:51.053Z,54.80
2019-02-02T18:20:19.512Z,51.70
2019-02-02T18:22:47.972Z,47.37
2019-02-02T18:25:17.510Z,46.13
2019-02-02T18:27:46.045Z,51.50
2019-02-02T18:30:22.671Z,50.43
2019-02-02T18:32:51.200Z,51.93
2019-02-02T18:35:19.663Z,46.80
2019-02-02T18:37:48.240Z,46.17
2019-02-02T18:40:18.851Z,38.27
2019-02-02T18:42:47.363Z,44.97
2019-02-02T18:45:24.293Z,34.10
2019-02-02T18:47:52.816Z,38.47
2019-02-02T18:50:21.292Z,30.87
2019-02-02T18:52:51.622Z,26.60
2019-02-02T18:55:31.750Z,32.77
2019-02-02T18:58:00.324Z,31.80
2019-02-02T19:00:28.867Z,27.60
2019-02-02T19:02:57.509Z,37.98
2019-02-02T19:05:28.962Z,37.33
2019-02-02T19:07:56.250Z,27.43
2019-02-02T19:10:30.543Z,25.37
2019-02-02T19:12:59.233Z,31.07
2019-02-02T19:15:27.699Z,29.13
2019-02-02T19:17:56.203Z,24.67
2019-02-02T19:20:24.653Z,34.47
2019-02-02T19:22:53.116Z,30.60
2019-02-02T19:25:21.601Z,28.33
2019-02-02T19:27:50.062Z,30.30
2019-02-02T19:30:27.370Z,27.70
2019-02-02T19:32:55.827Z,28.43
2019-02-02T19:35:24.340Z,28.30
2019-02-02T19:37:52.834Z,23.40
2019-02-02T19:40:21.295Z,25.13
2019-02-02T19:42:49.760Z,27.53
2019-02-02T19:45:26.042Z,29.90
2019-02-02T19:47:54.581Z,23.87
2019-02-02T19:50:25.056Z,22.93
2019-02-02T19:52:53.711Z,24.00
2019-02-02T19:55:22.168Z,23.77
2019-02-02T19:57:50.712Z,27.00
2019-02-02T20:00:24.602Z,29.03
2019-02-02T20:02:53.409Z,20.70
2019-02-02T20:05:28.648Z,16.30
2019-02-02T20:07:52.223Z,19.40
2019-02-02T20:10:20.767Z,17.97
2019-02-02T20:12:49.234Z,17.83
2019-02-02T20:15:25.656Z,14.67
2019-02-02T20:17:54.134Z,18.00
2019-02-02T20:20:27.981Z,20.10
2019-02-02T20:22:57.359Z,16.07
2019-02-02T20:25:26.049Z,14.73
2019-02-02T20:27:54.653Z,10.67
2019-02-02T20:30:25.844Z,11.63
2019-02-02T20:32:54.337Z,13.97
2019-02-02T20:35:22.935Z,8.57
2019-02-02T20:37:51.739Z,7.40
2019-02-02T20:40:25.086Z,8.97
2019-02-02T20:42:53.783Z,8.07
2019-02-02T20:45:28.292Z,10.63
2019-02-02T20:47:56.751Z,8.30
2019-02-02T20:50:25.205Z,10.50
2019-02-02T20:52:53.701Z,7.43
2019-02-02T20:55:24.699Z,5.00
2019-02-02T20:57:53.509Z,5.20
2019-02-02T21:00:24.258Z,5.17
2019-02-02T21:02:52.717Z,3.33
2019-02-02T21:05:21.376Z,6.73
2019-02-02T21:07:49.883Z,5.57
2019-02-02T21:10:20.957Z,3.50
2019-02-02T21:12:49.563Z,5.10
2019-02-02T21:15:18.180Z,5.40
2019-02-02T21:17:46.872Z,5.40
2019-02-02T21:20:18.180Z,6.87
2019-02-02T21:22:46.983Z,5.03
2019-02-02T21:25:16.275Z,7.10
2019-02-02T21:27:44.791Z,6.20
2019-02-02T21:30:16.648Z,6.00
2019-02-02T21:32:45.161Z,7.60
2019-02-02T21:35:13.726Z,6.83
2019-02-02T21:37:42.183Z,8.47
2019-02-02T21:40:13.878Z,7.10
2019-02-02T21:42:42.516Z,9.87
2019-02-02T21:45:13.224Z,8.50
2019-02-02T21:47:42.034Z,8.43
2019-02-02T21:50:14.065Z,7.70
2019-02-02T21:52:42.591Z,9.43
2019-02-02T21:55:17.204Z,10.30
2019-02-02T21:57:45.769Z,10.80
2019-02-02T22:00:20.114Z,9.40
2019-02-02T22:02:48.668Z,12.97
2019-02-02T22:05:17.284Z,10.60
2019-02-02T22:07:47.463Z,10.43
2019-02-02T22:10:16.610Z,13.20
2019-02-02T22:12:45.575Z,10.90
2019-02-02T22:15:18.296Z,10.67
2019-02-02T22:17:46.938Z,10.00
2019-02-02T22:20:17.314Z,10.70
2019-02-02T22:22:45.951Z,10.60
2019-02-02T22:25:22.090Z,10.47
2019-02-02T22:27:50.540Z,16.33
2019-02-02T22:30:21.390Z,10.90
2019-02-02T22:32:49.896Z,13.17
2019-02-02T22:35:18.508Z,12.40
2019-02-02T22:37:46.964Z,12.47
2019-02-02T22:40:24.541Z,12.53
2019-02-02T22:42:54.097Z,16.90
2019-02-02T22:45:23.092Z,17.63
2019-02-02T22:47:51.952Z,18.33
2019-02-02T22:50:22.141Z,11.90
2019-02-02T22:52:50.769Z,20.83
2019-02-02T22:55:20.828Z,19.93
2019-02-02T22:57:49.283Z,24.13
2019-02-02T23:00:43.526Z,22.90
2019-02-02T23:03:17.921Z,22.40
2019-02-02T23:06:12.368Z,21.00
2019-02-02T23:09:05.196Z,20.27
2019-02-02T23:11:48.853Z,21.87
2019-02-02T23:14:26.900Z,22.67
2019-02-02T23:16:55.369Z,25.33
2019-02-02T23:19:23.839Z,23.80
2019-02-02T23:21:52.309Z,29.00
2019-02-02T23:24:22.680Z,25.63
2019-02-02T23:26:51.411Z,29.67
2019-02-02T23:29:19.885Z,26.47
2019-02-02T23:31:48.372Z,29.10
2019-02-02T23:34:16.843Z,23.90
2019-02-02T23:36:51.796Z,23.03
2019-02-02T23:39:15.538Z,28.93
2019-02-02T23:41:44.009Z,33.07
2019-02-02T23:44:12.469Z,28.13
2019-02-02T23:46:40.967Z,35.63
2019-02-02T23:49:09.432Z,28.03
2019-02-02T23:51:37.896Z,28.67
2019-02-02T23:54:06.459Z,27.90
2019-02-02T23:56:35.006Z,33.13
2019-02-02T23:59:03.617Z,30.03
